Time;durP1;ratioP1;P1;durP2;ratioP2;P2;SDS_P1;SDS_P2;PMS_P1;PMS_P2;Temp;Humidity;BMP_temperature;BMP_pressure;BME280_temperature;BME280_humidity;BME280_pressure;Samples;Min_cycle;Max_cycle;Signal;HPM_P1;HPM_P2
2022/01/11 00:01:18;;;;;;;79.32;24.92;;;0.90;99.90;;;;;;5001208;28;20047;-74
2022/01/11 00:03:44;;;;;;;65.78;23.30;;;0.90;99.90;;;;;;5001652;28;20397;-75
2022/01/11 00:08:44;;;;;;;62.85;25.58;;;0.90;99.90;;;;;;5004842;28;20413;-74
2022/01/11 00:11:09;;;;;;;66.15;23.92;;;0.90;99.90;;;;;;4995585;28;20061;-75
2022/01/11 00:13:38;;;;;;;91.93;26.83;;;0.90;99.90;;;;;;4998163;28;20045;-74
2022/01/11 00:16:05;;;;;;;84.13;24.92;;;0.90;99.90;;;;;;5001601;28;20734;-74
2022/01/11 00:18:31;;;;;;;99.13;24.27;;;0.80;99.90;;;;;;4999185;28;20073;-74
2022/01/11 00:20:57;;;;;;;82.20;23.90;;;0.80;99.90;;;;;;4995699;28;20078;-75
2022/01/11 00:25:50;;;;;;;118.10;24.60;;;0.80;99.90;;;;;;5003026;28;20124;-74
2022/01/11 00:28:18;;;;;;;82.35;22.65;;;0.80;99.90;;;;;;4999882;28;20072;-74
2022/01/11 00:30:45;;;;;;;40.95;21.17;;;0.80;99.90;;;;;;4999264;28;20405;-75
2022/01/11 00:33:16;;;;;;;37.50;21.88;;;0.70;99.90;;;;;;5004046;28;20478;-74
2022/01/11 00:35:56;;;;;;;64.03;23.40;;;0.70;99.90;;;;;;4999077;28;20524;-75
2022/01/11 00:38:23;;;;;;;43.05;22.88;;;0.70;99.90;;;;;;5002685;28;20149;-75
2022/01/11 00:40:50;;;;;;;49.63;21.70;;;0.70;99.90;;;;;;5003701;28;20538;-75
2022/01/11 00:43:17;;;;;;;47.42;22.85;;;0.70;99.90;;;;;;5004485;28;20050;-74
2022/01/11 00:45:44;;;;;;;63.80;23.42;;;0.70;99.90;;;;;;4997299;28;20057;-74
2022/01/11 00:48:09;;;;;;;41.45;22.27;;;0.80;99.90;;;;;;5001576;28;21340;-75
2022/01/11 00:50:37;;;;;;;48.70;21.58;;;0.60;99.90;;;;;;5004175;28;20057;-75
2022/01/11 00:53:06;;;;;;;36.42;21.77;;;0.60;99.90;;;;;;4995681;28;20595;-74
2022/01/11 00:55:34;;;;;;;41.25;22.30;;;0.60;99.90;;;;;;4996417;28;20053;-74
2022/01/11 00:58:02;;;;;;;40.30;22.95;;;0.60;99.90;;;;;;5003737;28;20049;-74
2022/01/11 01:00:29;;;;;;;31.95;21.08;;;0.60;99.90;;;;;;5001945;28;20049;-75
2022/01/11 01:02:55;;;;;;;32.22;21.40;;;0.60;99.90;;;;;;4999336;28;20065;-75
2022/01/11 01:05:21;;;;;;;38.10;22.70;;;0.70;99.90;;;;;;5000992;28;20042;-74
2022/01/11 01:07:48;;;;;;;35.35;22.65;;;0.70;99.90;;;;;;4997378;28;20053;-74
2022/01/11 01:10:25;;;;;;;34.70;21.50;;;0.70;99.90;;;;;;4996738;28;20049;-74
2022/01/11 01:12:52;;;;;;;32.35;19.98;;;0.70;99.90;;;;;;4995291;28;20501;-75
2022/01/11 01:15:18;;;;;;;61.88;21.77;;;0.80;99.90;;;;;;4996462;28;20398;-75
2022/01/11 01:17:44;;;;;;;90.35;24.50;;;0.70;99.90;;;;;;5005024;28;20042;-74
2022/01/11 01:20:10;;;;;;;52.00;22.30;;;0.70;99.90;;;;;;4995922;28;20428;-74
2022/01/11 01:22:36;;;;;;;71.28;23.40;;;0.70;99.90;;;;;;4996558;28;20038;-74
2022/01/11 01:25:02;;;;;;;65.80;24.38;;;0.60;99.90;;;;;;4996433;28;20101;-74
2022/01/11 01:27:27;;;;;;;56.30;21.70;;;0.60;99.90;;;;;;5001023;28;20045;-74
2022/01/11 01:29:53;;;;;;;104.93;24.95;;;0.60;99.90;;;;;;5001035;28;20471;-74
2022/01/11 01:32:18;;;;;;;85.82;23.65;;;0.60;99.90;;;;;;5005440;28;20069;-74
2022/01/11 01:34:44;;;;;;;91.30;25.77;;;0.60;99.90;;;;;;5029158;28;20050;-74
2022/01/11 01:37:10;;;;;;;74.38;25.83;;;0.60;99.90;;;;;;4999369;28;20144;-74
2022/01/11 01:39:36;;;;;;;89.35;23.85;;;0.60;99.90;;;;;;5000883;28;20179;-74
2022/01/11 01:42:04;;;;;;;77.13;27.40;;;0.50;99.90;;;;;;5000228;28;20044;-74
2022/01/11 01:44:32;;;;;;;57.10;25.23;;;0.50;99.90;;;;;;5001056;28;20485;-75
2022/01/11 01:46:58;;;;;;;57.17;23.38;;;0.60;99.90;;;;;;4996561;28;20045;-75
2022/01/11 01:49:23;;;;;;;74.28;24.77;;;0.60;99.90;;;;;;4996002;28;20039;-75
2022/01/11 01:51:50;;;;;;;110.93;27.92;;;0.60;99.90;;;;;;4997979;28;20045;-75
2022/01/11 01:54:16;;;;;;;67.32;23.48;;;0.70;99.90;;;;;;5001716;28;20520;-75
2022/01/11 01:56:43;;;;;;;66.85;25.48;;;0.90;99.90;;;;;;4996164;28;20109;-75
2022/01/11 01:59:09;;;;;;;88.53;25.58;;;0.60;99.90;;;;;;5005606;28;20056;-74
2022/01/11 02:01:41;;;;;;;117.38;26.25;;;0.80;99.90;;;;;;4991188;28;20047;-75
2022/01/11 02:04:07;;;;;;;142.73;30.55;;;0.60;99.90;;;;;;4996939;28;20119;-75
2022/01/11 02:06:33;;;;;;;60.72;25.25;;;0.60;99.90;;;;;;4997368;28;20042;-75
2022/01/11 02:08:58;;;;;;;51.50;23.25;;;0.60;99.90;;;;;;5024036;27;21363;-75
2022/01/11 02:11:24;;;;;;;147.80;26.00;;;0.60;99.90;;;;;;4997744;28;20077;-75
2022/01/11 02:13:51;;;;;;;113.95;26.63;;;0.60;99.90;;;;;;5026409;28;20050;-75
2022/01/11 02:16:21;;;;;;;93.97;26.65;;;0.60;99.90;;;;;;4994324;28;20082;-74
2022/01/11 02:18:48;;;;;;;39.53;20.92;;;0.60;99.90;;;;;;4996226;28;20136;-75
2022/01/11 02:21:13;;;;;;;68.63;25.17;;;0.70;99.90;;;;;;5002517;28;20091;-74
2022/01/11 02:23:39;;;;;;;43.65;22.20;;;0.60;99.90;;;;;;4992264;28;20050;-74
2022/01/11 02:26:05;;;;;;;130.68;25.52;;;0.60;99.90;;;;;;4999216;28;20082;-75
2022/01/11 02:28:32;;;;;;;92.80;24.85;;;0.70;99.90;;;;;;4995945;28;20068;-75
2022/01/11 02:30:59;;;;;;;99.13;27.27;;;0.70;99.90;;;;;;4990888;28;20050;-75
2022/01/11 02:33:33;;;;;;;55.88;22.02;;;0.80;99.90;;;;;;4998677;28;20103;-74
2022/01/11 02:36:05;;;;;;;76.80;23.08;;;0.70;99.90;;;;;;5028949;28;20084;-74
2022/01/11 02:38:31;;;;;;;87.43;25.02;;;0.70;99.90;;;;;;4992658;28;20054;-75
2022/01/11 02:40:58;;;;;;;62.22;24.10;;;0.80;99.90;;;;;;4997817;28;20048;-75
2022/01/11 02:43:24;;;;;;;70.18;22.58;;;1.00;99.90;;;;;;4997195;28;20046;-75
2022/01/11 02:45:50;;;;;;;49.70;21.55;;;0.80;99.90;;;;;;5002300;28;20516;-75
2022/01/11 02:48:16;;;;;;;61.15;21.10;;;0.80;99.90;;;;;;4999522;28;20073;-75
2022/01/11 02:50:43;;;;;;;61.13;21.00;;;1.00;99.90;;;;;;4999280;28;20158;-74
2022/01/11 02:53:09;;;;;;;57.45;19.98;;;0.90;99.90;;;;;;5001774;28;20116;-74
2022/01/11 02:55:37;;;;;;;64.95;22.40;;;0.90;99.90;;;;;;5001101;28;20042;-75
2022/01/11 02:58:03;;;;;;;45.10;19.48;;;0.90;99.90;;;;;;5003628;28;20564;-74
2022/01/11 03:00:29;;;;;;;82.10;23.73;;;0.90;99.90;;;;;;4990752;28;20129;-74
2022/01/11 03:02:55;;;;;;;47.65;21.25;;;0.90;99.90;;;;;;5001943;28;20054;-75
2022/01/11 03:05:21;;;;;;;49.25;23.08;;;1.00;99.90;;;;;;4997413;28;20042;-75
2022/01/11 03:07:47;;;;;;;45.00;22.70;;;1.00;99.90;;;;;;4992982;28;20090;-75
2022/01/11 03:12:43;;;;;;;45.15;23.13;;;1.00;99.90;;;;;;4989532;28;20064;-75
2022/01/11 03:15:11;;;;;;;44.80;23.17;;;1.00;99.90;;;;;;4998233;28;20046;-74
2022/01/11 03:17:37;;;;;;;50.60;24.10;;;1.00;99.90;;;;;;4996652;28;20050;-74
2022/01/11 03:20:04;;;;;;;53.78;24.83;;;1.10;99.90;;;;;;4999685;28;20473;-74
2022/01/11 03:22:30;;;;;;;43.90;24.27;;;1.00;99.90;;;;;;5002916;28;20409;-74
2022/01/11 03:24:55;;;;;;;51.67;25.15;;;1.00;99.90;;;;;;4999832;28;20046;-74
2022/01/11 03:27:21;;;;;;;57.15;27.35;;;1.00;99.90;;;;;;4998354;28;20093;-74
2022/01/11 03:29:46;;;;;;;53.45;24.52;;;1.00;99.90;;;;;;5009809;28;20042;-74
2022/01/11 03:32:16;;;;;;;47.60;24.65;;;1.00;99.90;;;;;;5002366;28;20057;-75
2022/01/11 03:34:45;;;;;;;68.57;25.63;;;1.00;99.90;;;;;;4998423;28;20102;-75
2022/01/11 03:37:13;;;;;;;64.35;26.63;;;1.10;99.90;;;;;;4999083;28;20049;-75
2022/01/11 03:39:39;;;;;;;52.95;23.38;;;1.00;99.90;;;;;;4999319;28;20069;-74
2022/01/11 03:42:06;;;;;;;67.63;27.38;;;1.20;99.90;;;;;;5030993;28;20054;-74
2022/01/11 03:44:31;;;;;;;53.72;24.30;;;1.00;99.90;;;;;;5023721;28;20042;-75
2022/01/11 03:46:58;;;;;;;48.03;23.83;;;1.00;99.90;;;;;;4999844;28;20469;-75
2022/01/11 03:49:24;;;;;;;55.25;24.88;;;1.00;99.90;;;;;;4995883;28;20444;-75
2022/01/11 03:51:50;;;;;;;41.60;22.40;;;1.00;99.90;;;;;;5000218;28;20137;-74
2022/01/11 03:54:23;;;;;;;50.47;22.98;;;1.00;99.90;;;;;;5001795;28;20046;-74
2022/01/11 03:56:49;;;;;;;51.75;23.95;;;1.00;99.90;;;;;;4998483;28;20490;-74
2022/01/11 03:59:15;;;;;;;48.65;23.27;;;1.70;99.90;;;;;;5004511;28;20081;-75
2022/01/11 04:01:41;;;;;;;55.83;25.77;;;1.10;99.90;;;;;;4999384;28;20077;-74
2022/01/11 04:04:07;;;;;;;53.42;25.23;;;1.10;99.90;;;;;;5001110;28;20041;-74
2022/01/11 04:06:33;;;;;;;44.80;22.75;;;1.10;99.90;;;;;;5000006;28;20046;-74
2022/01/11 04:08:59;;;;;;;46.75;23.13;;;1.00;99.90;;;;;;4997776;28;20057;-74
2022/01/11 04:11:25;;;;;;;47.08;22.20;;;1.00;99.90;;;;;;4996422;28;20050;-75
2022/01/11 04:13:50;;;;;;;59.00;25.48;;;1.00;99.90;;;;;;5001506;28;20513;-74
2022/01/11 04:16:16;;;;;;;52.30;24.85;;;1.00;99.90;;;;;;5003424;28;20124;-74
2022/01/11 04:18:41;;;;;;;56.45;25.38;;;0.90;99.90;;;;;;4995772;28;20061;-74
2022/01/11 04:21:07;;;;;;;45.30;23.10;;;0.90;99.90;;;;;;5000870;28;20135;-74
2022/01/11 04:23:34;;;;;;;46.53;24.45;;;0.90;99.90;;;;;;4994001;28;20050;-74
2022/01/11 04:26:00;;;;;;;44.42;22.90;;;0.90;99.90;;;;;;5003804;28;20042;-74
2022/01/11 04:28:27;;;;;;;53.42;24.10;;;0.90;99.90;;;;;;5003271;28;20045;-75
2022/01/11 04:30:58;;;;;;;49.80;25.42;;;0.90;99.90;;;;;;4999396;28;20047;-74
2022/01/11 04:33:25;;;;;;;47.90;22.85;;;0.80;99.90;;;;;;5031113;27;20045;-74
2022/01/11 04:35:51;;;;;;;53.38;25.92;;;0.90;99.90;;;;;;5000300;28;20050;-74
2022/01/11 04:38:18;;;;;;;49.70;22.48;;;0.80;99.90;;;;;;4996621;28;20050;-74
2022/01/11 04:40:45;;;;;;;44.38;23.35;;;0.80;99.90;;;;;;5002305;28;20056;-75
2022/01/11 04:43:10;;;;;;;45.08;22.33;;;0.80;99.90;;;;;;4999488;28;20129;-75
2022/01/11 04:45:36;;;;;;;49.17;24.50;;;0.80;99.90;;;;;;4998914;28;20129;-74
2022/01/11 04:48:02;;;;;;;51.40;23.77;;;0.80;99.90;;;;;;5001180;28;20085;-74
2022/01/11 04:50:28;;;;;;;46.72;20.98;;;0.80;99.90;;;;;;4993524;28;20034;-74
2022/01/11 04:52:54;;;;;;;45.92;22.05;;;0.80;99.90;;;;;;4991301;28;20050;-74
2022/01/11 04:55:20;;;;;;;47.22;22.15;;;0.90;99.90;;;;;;4999468;28;20050;-74
2022/01/11 04:57:46;;;;;;;48.65;22.58;;;0.80;99.90;;;;;;5003040;28;20054;-74
2022/01/11 05:00:14;;;;;;;48.58;22.90;;;0.80;99.90;;;;;;4998902;28;20515;-74
2022/01/11 05:02:40;;;;;;;48.00;22.40;;;0.80;99.90;;;;;;4996732;28;20062;-74
2022/01/11 05:05:06;;;;;;;53.13;25.20;;;0.70;99.90;;;;;;4996340;28;20134;-74
2022/01/11 05:07:32;;;;;;;62.13;24.30;;;0.70;99.90;;;;;;5000018;28;20054;-74
2022/01/11 05:09:57;;;;;;;49.28;23.92;;;1.10;99.90;;;;;;5001973;28;20034;-74
2022/01/11 05:12:23;;;;;;;48.05;22.85;;;0.70;99.90;;;;;;4990766;28;20050;-74
2022/01/11 05:14:49;;;;;;;52.97;24.70;;;0.70;99.90;;;;;;5000567;28;20396;-74
2022/01/11 05:17:15;;;;;;;49.33;25.80;;;0.70;99.90;;;;;;4997239;28;20053;-74
2022/01/11 05:19:40;;;;;;;50.38;24.63;;;0.70;99.90;;;;;;5001508;28;20044;-74
2022/01/11 05:22:06;;;;;;;52.92;24.52;;;0.70;99.90;;;;;;5000834;28;20530;-74
2022/01/11 05:24:31;;;;;;;46.45;24.55;;;1.70;99.90;;;;;;5004338;28;20072;-74
2022/01/11 05:26:57;;;;;;;52.17;23.90;;;0.70;99.90;;;;;;4997369;28;20050;-74
2022/01/11 05:29:23;;;;;;;56.72;25.17;;;0.70;99.90;;;;;;4998473;28;20042;-74
2022/01/11 05:31:48;;;;;;;49.38;24.20;;;0.70;99.90;;;;;;5014029;28;20038;-74
2022/01/11 05:34:14;;;;;;;54.75;25.92;;;0.80;99.90;;;;;;4996848;28;20077;-74
2022/01/11 05:36:40;;;;;;;46.47;24.00;;;0.80;99.90;;;;;;4998308;28;20056;-74
2022/01/11 05:39:06;;;;;;;48.97;23.38;;;1.00;99.90;;;;;;5001053;28;20061;-74
2022/01/11 05:41:32;;;;;;;56.80;26.08;;;0.80;99.90;;;;;;4997353;28;20042;-75
2022/01/11 05:43:59;;;;;;;58.00;25.15;;;0.80;99.90;;;;;;4994765;28;20675;-74
2022/01/11 05:46:25;;;;;;;52.38;23.92;;;0.90;99.90;;;;;;5029079;28;20409;-74
2022/01/11 05:48:50;;;;;;;45.05;22.90;;;0.80;99.90;;;;;;4997034;28;20094;-74
2022/01/11 05:51:16;;;;;;;48.15;23.38;;;0.80;99.90;;;;;;4997511;28;20396;-74
2022/01/11 05:53:43;;;;;;;54.30;25.45;;;0.80;99.90;;;;;;4997576;28;20874;-74
2022/01/11 05:56:09;;;;;;;61.97;26.35;;;0.80;99.90;;;;;;4998804;28;20438;-74
2022/01/11 05:58:35;;;;;;;58.38;23.98;;;0.80;99.90;;;;;;5005854;28;20050;-74
2022/01/11 06:01:00;;;;;;;53.40;24.48;;;0.70;99.90;;;;;;5002293;28;20080;-74
2022/01/11 06:03:26;;;;;;;50.67;24.35;;;0.70;99.90;;;;;;5000967;28;20191;-74
2022/01/11 06:05:52;;;;;;;52.75;24.65;;;0.70;99.90;;;;;;5000883;28;20560;-75
2022/01/11 06:08:17;;;;;;;48.92;25.00;;;0.70;99.90;;;;;;4999468;28;20165;-75
2022/01/11 06:10:44;;;;;;;54.58;23.63;;;0.70;99.90;;;;;;5004020;28;20046;-76
2022/01/11 06:13:10;;;;;;;60.88;25.58;;;0.70;99.90;;;;;;5000037;28;20038;-76
2022/01/11 06:15:36;;;;;;;56.58;26.52;;;0.70;99.90;;;;;;4997373;28;20061;-75
2022/01/11 06:18:02;;;;;;;50.78;24.90;;;0.70;99.90;;;;;;5001377;28;20125;-75
2022/01/11 06:20:28;;;;;;;52.65;23.38;;;0.70;99.90;;;;;;5003586;28;20042;-75
2022/01/11 06:22:54;;;;;;;58.08;26.73;;;0.70;99.90;;;;;;5001486;28;20442;-76
2022/01/11 06:25:20;;;;;;;58.28;27.40;;;0.70;99.90;;;;;;4997090;28;20441;-75
2022/01/11 06:27:46;;;;;;;52.30;24.63;;;0.70;99.90;;;;;;4999518;28;20145;-75
2022/01/11 06:30:12;;;;;;;49.95;24.13;;;0.70;99.90;;;;;;5000537;28;20037;-75
2022/01/11 06:32:38;;;;;;;51.65;23.67;;;0.70;99.90;;;;;;5003074;28;20085;-75
2022/01/11 06:35:06;;;;;;;55.55;25.83;;;0.70;99.90;;;;;;5001753;28;20050;-75
2022/01/11 06:37:32;;;;;;;55.00;24.75;;;0.70;99.90;;;;;;4998042;28;20093;-78
2022/01/11 06:39:57;;;;;;;54.03;25.15;;;0.70;99.90;;;;;;5000704;28;20073;-75
2022/01/11 06:42:23;;;;;;;59.72;26.75;;;0.70;99.90;;;;;;5002656;28;20045;-75
2022/01/11 06:44:48;;;;;;;56.25;26.48;;;0.70;99.90;;;;;;5001797;28;20045;-75
2022/01/11 06:47:14;;;;;;;58.75;26.38;;;0.70;99.90;;;;;;5000587;28;20095;-76
2022/01/11 06:49:39;;;;;;;62.03;28.15;;;0.90;99.90;;;;;;5001455;28;20115;-76
2022/01/11 06:52:05;;;;;;;59.60;26.70;;;0.70;99.90;;;;;;4999410;28;20046;-76
2022/01/11 06:54:31;;;;;;;55.22;25.55;;;0.70;99.90;;;;;;4997746;28;20100;-76
2022/01/11 06:56:57;;;;;;;56.67;25.65;;;0.70;99.90;;;;;;5000832;28;20042;-76
2022/01/11 06:59:22;;;;;;;61.38;26.50;;;0.70;99.90;;;;;;5000232;28;20044;-76
2022/01/11 07:01:49;;;;;;;67.07;28.02;;;0.70;99.90;;;;;;4998308;28;20416;-76
2022/01/11 07:04:15;;;;;;;62.85;28.00;;;0.70;99.90;;;;;;4998220;28;20085;-76
2022/01/11 07:06:40;;;;;;;55.58;25.60;;;0.70;99.90;;;;;;5001187;28;20069;-76
2022/01/11 07:09:06;;;;;;;51.85;24.83;;;0.70;99.90;;;;;;5000079;28;20053;-74
2022/01/11 07:11:31;;;;;;;45.85;24.40;;;0.70;99.90;;;;;;4994230;28;20096;-74
2022/01/11 07:13:57;;;;;;;63.67;28.40;;;0.70;99.90;;;;;;4998340;28;20038;-73
2022/01/11 07:16:23;;;;;;;56.20;26.75;;;0.70;99.90;;;;;;5001700;28;20134;-72
2022/01/11 07:18:49;;;;;;;68.03;27.83;;;0.70;99.90;;;;;;4999605;28;20051;-73
2022/01/11 07:21:15;;;;;;;58.08;26.45;;;0.70;99.90;;;;;;5000728;28;20056;-73
2022/01/11 07:23:41;;;;;;;59.67;28.10;;;0.70;99.90;;;;;;4996056;28;20034;-73
2022/01/11 07:26:09;;;;;;;72.00;28.80;;;0.70;99.90;;;;;;5000889;28;20038;-71
2022/01/11 07:28:35;;;;;;;61.05;27.95;;;0.70;99.90;;;;;;5003282;28;20049;-72
2022/01/11 07:31:02;;;;;;;70.70;26.20;;;0.70;99.90;;;;;;5003098;28;20038;-72
2022/01/11 07:33:27;;;;;;;58.50;26.27;;;0.70;99.90;;;;;;5000315;28;20050;-72
2022/01/11 07:35:53;;;;;;;58.92;26.73;;;0.70;99.90;;;;;;5005893;28;20054;-71
2022/01/11 07:38:18;;;;;;;60.38;26.30;;;0.70;99.90;;;;;;5001193;28;20046;-71
2022/01/11 07:40:44;;;;;;;73.03;29.25;;;0.70;99.90;;;;;;4998700;28;20111;-72
2022/01/11 07:43:10;;;;;;;60.45;27.60;;;0.70;99.90;;;;;;5003400;28;20393;-71
2022/01/11 07:45:35;;;;;;;72.88;28.70;;;0.70;99.90;;;;;;5000012;28;20088;-71
2022/01/11 07:48:01;;;;;;;58.80;25.63;;;0.70;99.90;;;;;;4997370;28;20504;-71
2022/01/11 07:50:26;;;;;;;63.15;27.20;;;0.70;99.90;;;;;;4997215;28;20038;-73
2022/01/11 07:52:52;;;;;;;67.45;27.67;;;0.70;99.90;;;;;;4990859;28;20051;-72
2022/01/11 07:55:19;;;;;;;65.13;27.40;;;0.70;99.90;;;;;;5005334;28;20096;-72
2022/01/11 07:57:45;;;;;;;64.13;26.90;;;0.70;99.90;;;;;;5024457;28;20054;-72
2022/01/11 08:00:11;;;;;;;64.93;26.48;;;0.80;99.90;;;;;;4994753;28;20087;-72
2022/01/11 08:02:36;;;;;;;67.60;27.77;;;0.80;99.90;;;;;;5002504;28;20408;-72
2022/01/11 08:05:04;;;;;;;67.63;26.35;;;0.80;99.90;;;;;;5006033;28;20082;-72
2022/01/11 08:07:31;;;;;;;64.25;27.77;;;0.80;99.90;;;;;;4998430;28;20055;-72
2022/01/11 08:09:56;;;;;;;62.40;26.35;;;0.80;99.90;;;;;;4995231;28;20057;-72
2022/01/11 08:12:22;;;;;;;61.92;26.98;;;0.80;99.90;;;;;;4991778;28;20050;-72
2022/01/11 08:14:48;;;;;;;64.85;25.10;;;0.80;99.90;;;;;;4996597;28;20427;-72
2022/01/11 08:17:14;;;;;;;56.80;25.85;;;0.80;99.90;;;;;;5004314;28;20493;-72
2022/01/11 08:19:40;;;;;;;61.17;26.00;;;0.80;99.90;;;;;;4998685;28;20046;-72
2022/01/11 08:22:06;;;;;;;57.20;26.25;;;0.80;99.90;;;;;;4995591;28;20047;-72
2022/01/11 08:24:32;;;;;;;51.20;21.50;;;0.80;99.90;;;;;;4994909;28;20118;-72
2022/01/11 08:26:58;;;;;;;57.15;25.27;;;0.80;99.90;;;;;;5006524;28;20042;-72
2022/01/11 08:29:24;;;;;;;58.50;27.02;;;0.80;99.90;;;;;;4998180;28;20422;-72
2022/01/11 08:31:50;;;;;;;62.15;26.30;;;0.80;99.90;;;;;;5002704;28;20133;-72
2022/01/11 08:34:16;;;;;;;61.05;25.20;;;0.80;99.90;;;;;;5007127;28;20423;-72
2022/01/11 08:36:44;;;;;;;58.40;24.45;;;0.80;99.90;;;;;;4994076;28;20041;-72
2022/01/11 08:39:10;;;;;;;52.22;24.63;;;1.00;99.90;;;;;;4994132;28;20068;-73
2022/01/11 08:41:37;;;;;;;55.67;25.33;;;0.80;99.90;;;;;;4995411;28;20153;-72
2022/01/11 08:44:02;;;;;;;58.38;25.55;;;0.80;99.90;;;;;;5008877;28;20052;-72
2022/01/11 08:46:28;;;;;;;66.68;27.25;;;0.90;99.90;;;;;;5008667;28;20045;-72
2022/01/11 08:48:53;;;;;;;56.78;24.45;;;0.90;99.90;;;;;;5003093;28;20278;-72
2022/01/11 08:51:19;;;;;;;46.47;21.52;;;0.90;99.90;;;;;;4994249;28;20417;-72
2022/01/11 08:53:45;;;;;;;59.20;24.50;;;0.90;99.90;;;;;;4997700;28;20382;-72
2022/01/11 08:56:15;;;;;;;51.25;22.40;;;0.90;99.90;;;;;;5001669;28;20070;-72
2022/01/11 08:58:41;;;;;;;74.53;24.88;;;0.90;99.90;;;;;;5014114;28;20562;-72
2022/01/11 09:01:06;;;;;;;49.78;23.08;;;0.90;99.90;;;;;;4991203;28;20136;-72
2022/01/11 09:03:32;;;;;;;46.22;21.83;;;0.90;99.90;;;;;;5002440;28;20042;-72
2022/01/11 09:05:58;;;;;;;46.30;20.85;;;0.90;99.90;;;;;;5001677;28;20043;-72
2022/01/11 09:08:23;;;;;;;47.92;22.52;;;0.90;99.90;;;;;;4999237;28;20041;-72
2022/01/11 09:10:50;;;;;;;44.08;21.95;;;0.90;99.90;;;;;;4992127;28;20045;-72
2022/01/11 09:13:18;;;;;;;40.50;19.98;;;0.90;99.90;;;;;;4989299;28;20058;-72
2022/01/11 09:15:43;;;;;;;42.00;20.02;;;0.90;99.90;;;;;;5006863;28;20053;-72
2022/01/11 09:18:10;;;;;;;46.92;21.08;;;0.90;99.90;;;;;;5002082;28;20035;-72
2022/01/11 09:20:36;;;;;;;36.80;19.55;;;1.00;99.90;;;;;;5008051;28;20114;-72
2022/01/11 09:23:02;;;;;;;39.92;20.52;;;1.00;99.90;;;;;;5000088;28;20038;-72
2022/01/11 09:25:28;;;;;;;35.47;17.45;;;0.90;99.90;;;;;;4994765;28;20053;-72
2022/01/11 09:27:54;;;;;;;40.63;18.85;;;1.00;99.90;;;;;;4997485;28;20551;-72
2022/01/11 09:30:20;;;;;;;40.60;18.00;;;0.90;99.90;;;;;;5001219;28;20138;-72
2022/01/11 09:32:45;;;;;;;41.33;19.25;;;1.00;99.90;;;;;;4995195;28;20160;-72
2022/01/11 09:35:12;;;;;;;37.80;18.30;;;1.00;99.90;;;;;;5002737;28;20046;-72
2022/01/11 09:37:39;;;;;;;37.55;16.77;;;0.90;99.90;;;;;;5005328;28;20512;-72
2022/01/11 09:40:08;;;;;;;39.28;18.35;;;0.90;99.90;;;;;;4999879;28;20054;-72
2022/01/11 09:42:34;;;;;;;36.58;17.10;;;0.90;99.90;;;;;;5000709;28;20055;-72
2022/01/11 09:45:01;;;;;;;35.22;17.10;;;0.90;99.90;;;;;;4994046;28;20038;-72
2022/01/11 09:47:26;;;;;;;31.83;15.75;;;0.90;99.90;;;;;;4992522;28;20046;-72
2022/01/11 09:49:52;;;;;;;33.30;15.70;;;0.90;99.90;;;;;;5002223;28;20041;-72
2022/01/11 09:52:18;;;;;;;31.10;16.08;;;0.90;99.90;;;;;;5006629;28;20164;-72
2022/01/11 09:54:47;;;;;;;31.77;16.25;;;0.90;99.90;;;;;;5007757;28;20046;-72
2022/01/11 09:57:13;;;;;;;34.53;16.88;;;0.90;99.90;;;;;;5083911;28;20065;-72
2022/01/11 09:59:39;;;;;;;28.50;14.80;;;0.90;99.90;;;;;;5006729;28;20107;-72
2022/01/11 10:02:05;;;;;;;30.48;15.70;;;0.90;99.90;;;;;;4997981;28;20493;-72
2022/01/11 10:04:34;;;;;;;33.17;15.48;;;0.90;99.90;;;;;;4995515;28;20045;-72
2022/01/11 10:07:02;;;;;;;31.73;16.08;;;0.90;99.90;;;;;;5006689;28;20046;-72
2022/01/11 10:09:30;;;;;;;34.40;15.32;;;0.90;99.90;;;;;;4991668;28;20054;-72
2022/01/11 10:12:00;;;;;;;29.10;15.98;;;0.90;99.90;;;;;;5003501;28;20053;-72
2022/01/11 10:14:32;;;;;;;30.23;16.13;;;1.00;99.90;;;;;;5002516;28;20038;-72
2022/01/11 10:17:20;;;;;;;29.63;15.52;;;1.00;99.90;;;;;;5002543;28;20092;-72
2022/01/11 10:20:07;;;;;;;28.63;15.40;;;1.00;99.90;;;;;;4995486;28;20056;-72
2022/01/11 10:22:33;;;;;;;32.78;17.42;;;1.00;99.90;;;;;;5013312;28;20775;-72
2022/01/11 10:25:01;;;;;;;31.10;16.45;;;1.00;99.90;;;;;;5007993;28;20057;-72
2022/01/11 10:27:32;;;;;;;32.40;16.00;;;1.00;99.90;;;;;;4992083;28;20057;-72
2022/01/11 10:30:05;;;;;;;32.13;16.00;;;1.00;99.90;;;;;;4998893;28;20038;-72
2022/01/11 10:32:43;;;;;;;29.70;15.50;;;1.10;99.90;;;;;;5000955;28;20395;-72
2022/01/11 10:35:10;;;;;;;31.27;14.75;;;1.10;99.90;;;;;;4995599;28;20509;-72
2022/01/11 10:37:38;;;;;;;31.52;16.20;;;1.10;99.90;;;;;;4991943;28;20046;-72
2022/01/11 10:40:15;;;;;;;27.30;15.27;;;1.10;99.90;;;;;;4990300;28;20058;-72
2022/01/11 10:42:45;;;;;;;30.50;16.90;;;1.10;99.90;;;;;;5017706;28;20063;-72
2022/01/11 10:45:22;;;;;;;32.83;16.45;;;1.20;99.90;;;;;;5023824;28;20046;-72
2022/01/11 10:47:51;;;;;;;26.25;14.75;;;1.20;99.90;;;;;;4994706;28;20054;-72
2022/01/11 10:50:28;;;;;;;32.17;15.30;;;1.20;99.90;;;;;;4993747;28;20511;-72
2022/01/11 10:52:55;;;;;;;29.98;15.15;;;1.20;99.90;;;;;;5006393;28;20054;-72
2022/01/11 10:55:27;;;;;;;31.65;16.75;;;1.20;99.90;;;;;;5016777;28;20050;-72
2022/01/11 10:57:59;;;;;;;30.80;16.35;;;1.30;99.90;;;;;;5026091;28;20575;-72
2022/01/11 11:00:26;;;;;;;29.38;15.13;;;1.30;99.90;;;;;;5013495;28;20037;-72
2022/01/11 11:03:14;;;;;;;28.77;14.45;;;1.30;99.90;;;;;;5007770;28;20046;-72
2022/01/11 11:06:07;;;;;;;28.65;16.00;;;1.30;99.90;;;;;;4992410;28;20076;-72
2022/01/11 11:08:36;;;;;;;27.08;14.90;;;1.40;99.90;;;;;;5003551;28;20095;-72
2022/01/11 11:11:06;;;;;;;29.20;14.50;;;1.50;99.90;;;;;;4986306;28;20092;-72
2022/01/11 11:13:35;;;;;;;31.20;14.02;;;1.50;99.90;;;;;;5002536;28;20052;-72
2022/01/11 11:16:13;;;;;;;30.45;15.35;;;1.50;99.90;;;;;;5001738;28;20065;-72
2022/01/11 11:18:43;;;;;;;25.42;13.98;;;1.60;99.90;;;;;;4995044;28;20041;-72
2022/01/11 11:21:33;;;;;;;27.00;15.75;;;1.70;99.90;;;;;;5027062;27;20046;-73
2022/01/11 11:24:02;;;;;;;26.77;15.07;;;1.80;99.90;;;;;;5005216;28;20050;-72
2022/01/11 11:26:31;;;;;;;27.30;14.40;;;1.90;99.90;;;;;;5006284;28;20501;-72
2022/01/11 11:28:57;;;;;;;31.60;15.57;;;2.00;99.90;;;;;;4996948;28;20045;-73
2022/01/11 11:31:24;;;;;;;27.52;15.68;;;2.10;99.90;;;;;;4998369;28;20038;-73
2022/01/11 11:33:50;;;;;;;26.23;14.25;;;2.20;99.90;;;;;;4995109;28;20065;-72
2022/01/11 11:36:18;;;;;;;26.67;14.18;;;2.30;99.90;;;;;;5000691;28;20049;-73
2022/01/11 11:38:55;;;;;;;26.00;13.85;;;2.40;99.90;;;;;;5001021;28;20050;-73
2022/01/11 11:41:24;;;;;;;28.05;13.45;;;2.50;99.90;;;;;;4996948;28;20145;-73
2022/01/11 11:44:19;;;;;;;26.58;14.82;;;2.60;99.90;;;;;;5000446;28;20042;-73
2022/01/11 11:46:59;;;;;;;28.08;14.27;;;2.70;99.90;;;;;;4997319;28;20429;-73
2022/01/11 11:49:45;;;;;;;25.15;13.48;;;2.80;99.90;;;;;;4997898;28;20037;-73
2022/01/11 11:52:38;;;;;;;23.40;13.13;;;3.00;99.90;;;;;;5007384;28;20061;-73
2022/01/11 11:55:19;;;;;;;24.35;12.60;;;3.10;99.90;;;;;;5007689;28;20174;-73
2022/01/11 11:57:46;;;;;;;24.00;14.10;;;3.20;99.90;;;;;;5009587;28;20049;-73
2022/01/11 12:00:20;;;;;;;22.88;12.65;;;3.20;99.90;;;;;;4996692;28;20077;-73
2022/01/11 12:03:18;;;;;;;28.58;12.18;;;3.20;99.90;;;;;;4998685;28;20501;-73
2022/01/11 12:05:47;;;;;;;28.65;12.32;;;3.20;99.90;;;;;;5011023;28;20509;-73
2022/01/11 12:08:33;;;;;;;26.00;13.13;;;3.10;99.90;;;;;;5007316;28;20048;-73
2022/01/11 12:11:02;;;;;;;24.13;12.80;;;3.10;99.90;;;;;;5002560;28;20042;-72
2022/01/11 12:13:40;;;;;;;21.33;10.55;;;3.10;99.90;;;;;;5009705;28;20056;-73
2022/01/11 12:16:23;;;;;;;24.00;12.18;;;3.20;99.90;;;;;;5002675;28;20385;-73
2022/01/11 12:18:50;;;;;;;23.17;12.05;;;3.20;99.90;;;;;;4996057;28;20049;-73
2022/01/11 12:21:16;;;;;;;21.52;11.50;;;3.20;99.90;;;;;;5001494;28;20070;-72
2022/01/11 12:23:47;;;;;;;23.05;11.65;;;3.30;99.90;;;;;;5006011;28;20047;-72
2022/01/11 12:26:16;;;;;;;22.75;11.55;;;3.30;99.90;;;;;;5006274;28;20590;-73
2022/01/11 12:28:43;;;;;;;24.13;11.65;;;3.30;99.90;;;;;;5008759;28;20057;-73
2022/01/11 12:31:26;;;;;;;23.52;11.50;;;3.30;99.90;;;;;;4996539;28;20082;-74
2022/01/11 12:33:52;;;;;;;20.95;10.82;;;3.40;99.90;;;;;;5036080;27;20076;-73
2022/01/11 12:36:18;;;;;;;22.85;12.20;;;3.40;99.90;;;;;;5004433;28;20123;-73
2022/01/11 12:39:04;;;;;;;22.98;11.57;;;3.40;99.90;;;;;;4994524;28;20068;-73
2022/01/11 12:41:37;;;;;;;21.35;11.25;;;3.40;99.90;;;;;;5004350;28;20136;-73
2022/01/11 12:44:33;;;;;;;22.73;11.00;;;3.50;99.90;;;;;;5030977;28;20489;-73
2022/01/11 12:47:08;;;;;;;18.50;10.95;;;3.50;99.90;;;;;;5006134;28;20117;-73